Time;durP1;ratioP1;P1;durP2;ratioP2;P2;SDS_P1;SDS_P2;PMS_P1;PMS_P2;Temp;Humidity;BMP_temperature;BMP_pressure;BME280_temperature;BME280_humidity;BME280_pressure;Samples;Min_cycle;Max_cycle;Signal;HPM_P1;HPM_P2
2022/03/16 00:00:47;;;;;;;37.15;22.10;;;;;;;9.52;52.95;100708.36;2027046;87;29940;-60
2022/03/16 00:03:51;;;;;;;39.20;23.05;;;;;;;9.52;53.17;100709.70;2027252;87;27806;-61
2022/03/16 00:06:53;;;;;;;41.02;23.47;;;;;;;9.50;53.24;100707.10;2026948;87;34280;-61
2022/03/16 00:09:55;;;;;;;42.10;24.27;;;;;;;9.46;53.44;100712.16;2029220;86;30299;-65
2022/03/16 00:12:59;;;;;;;41.37;22.40;;;;;;;9.44;53.46;100705.98;2027228;87;27708;-65
2022/03/16 00:16:01;;;;;;;36.45;22.32;;;;;;;9.40;53.36;100704.39;2027658;87;29270;-60
2022/03/16 00:19:03;;;;;;;39.18;22.87;;;;;;;9.39;53.37;100709.33;2027063;87;31970;-70
2022/03/16 00:22:06;;;;;;;36.23;21.55;;;;;;;9.40;53.35;100710.59;2027470;87;34245;-61
2022/03/16 00:25:09;;;;;;;33.55;21.17;;;;;;;9.41;53.32;100713.67;2027006;87;30532;-61
2022/03/16 00:28:12;;;;;;;31.95;20.02;;;;;;;9.41;53.27;100710.14;2031025;86;27626;-68
2022/03/16 00:31:13;;;;;;;30.55;19.55;;;;;;;9.43;53.38;100709.62;2069550;85;28595;-60
2022/03/16 00:34:15;;;;;;;32.63;20.48;;;;;;;9.44;53.42;100708.66;2070739;85;31786;-60
2022/03/16 00:49:30;;;;;;;38.40;21.30;;;;;;;9.36;54.75;100722.80;2034225;86;29702;-63
2022/03/16 00:52:31;;;;;;;37.45;22.37;;;;;;;9.30;54.84;100721.69;2034660;86;33032;-65
2022/03/16 00:55:33;;;;;;;34.35;22.13;;;;;;;9.23;54.96;100725.06;2104693;84;29714;-70
2022/03/16 00:58:36;;;;;;;35.73;21.75;;;;;;;9.18;55.39;100724.38;2077149;84;27702;-60
2022/03/16 01:01:38;;;;;;;29.45;17.30;;;;;;;9.11;55.47;100731.72;2062749;85;28496;-70
2022/03/16 01:04:40;;;;;;;23.80;16.82;;;;;;;9.06;55.98;100733.72;2070922;85;31012;-70
2022/03/16 01:07:42;;;;;;;23.10;16.87;;;;;;;9.02;56.37;100733.41;2070533;85;34215;-73
2022/03/16 01:10:44;;;;;;;26.55;18.17;;;;;;;8.97;56.66;100736.25;2070336;85;30627;-73
2022/03/16 01:13:46;;;;;;;22.82;16.32;;;;;;;8.91;56.97;100733.79;2052613;85;28071;-73
2022/03/16 01:16:48;;;;;;;26.80;17.98;;;;;;;8.85;58.03;100742.05;2048709;84;29560;-73
2022/03/16 01:19:52;;;;;;;25.90;18.67;;;;;;;8.75;58.23;100737.00;2099899;84;31995;-71
2022/03/16 01:22:54;;;;;;;31.93;20.17;;;;;;;8.69;59.24;100743.03;2070823;85;32989;-72
2022/03/16 01:25:56;;;;;;;32.00;19.85;;;;;;;8.58;59.49;100746.06;2049990;85;30136;-68
2022/03/16 01:28:58;;;;;;;28.50;20.60;;;;;;;8.47;59.91;100743.72;2051907;85;27707;-70
2022/03/16 01:32:00;;;;;;;26.73;21.42;;;;;;;8.36;60.75;100750.75;2080411;85;29981;-71
2022/03/16 01:35:02;;;;;;;28.80;19.90;;;;;;;8.25;60.62;100746.23;2046576;85;31830;-71
2022/03/16 01:38:04;;;;;;;26.70;20.32;;;;;;;8.16;61.67;100748.30;2044798;87;33017;-66
2022/03/16 01:41:06;;;;;;;29.02;20.02;;;;;;;8.05;61.75;100756.64;2045768;85;29389;-64
2022/03/16 01:44:10;;;;;;;34.05;20.95;;;;;;;7.96;62.14;100753.39;2007414;87;27700;-65
2022/03/16 01:47:13;;;;;;;28.27;21.87;;;;;;;7.87;62.36;100758.55;2028023;87;28837;-67
2022/03/16 01:50:15;;;;;;;32.53;22.27;;;;;;;7.79;62.88;100756.13;2017197;86;31130;-71
2022/03/16 01:53:18;;;;;;;29.92;21.65;;;;;;;7.74;63.13;100753.60;2057732;86;34115;-70
2022/03/16 01:56:20;;;;;;;34.35;22.87;;;;;;;7.71;63.54;100764.80;2057264;86;30004;-71
2022/03/16 01:59:22;;;;;;;35.05;22.70;;;;;;;7.65;63.60;100757.86;2080777;85;28254;-71
2022/03/16 02:02:24;;;;;;;31.12;21.65;;;;;;;7.60;64.43;100756.67;2077903;85;29920;-69
2022/03/16 02:05:30;;;;;;;29.48;22.05;;;;;;;7.55;64.31;100763.07;2080541;85;31019;-70
2022/03/16 02:08:33;;;;;;;27.62;21.52;;;;;;;7.50;64.68;100764.55;2076971;85;34144;-70
2022/03/16 02:11:35;;;;;;;31.97;23.22;;;;;;;7.48;65.26;100773.48;2067341;85;29748;-71
2022/03/16 02:14:39;;;;;;;30.82;22.95;;;;;;;7.42;65.23;100771.44;2051646;85;27640;-67
2022/03/16 02:17:41;;;;;;;28.70;22.27;;;;;;;7.38;65.40;100773.77;2044511;87;30026;-70
2022/03/16 02:20:43;;;;;;;32.73;23.75;;;;;;;7.36;65.47;100774.27;2045859;85;32107;-69
2022/03/16 02:23:45;;;;;;;30.08;22.73;;;;;;;7.35;65.79;100776.52;2027610;87;33833;-69
2022/03/16 02:26:47;;;;;;;33.23;23.65;;;;;;;7.32;65.88;100773.93;2006739;88;30509;-70
2022/03/16 02:29:49;;;;;;;33.15;23.75;;;;;;;7.30;66.08;100780.66;2069239;84;27717;-69
2022/03/16 02:32:51;;;;;;;32.25;24.27;;;;;;;7.31;66.10;100796.17;2086301;84;29051;-70
2022/03/16 02:35:54;;;;;;;31.23;23.73;;;;;;;7.32;66.24;100798.39;2097180;84;31677;-71
2022/03/16 02:38:56;;;;;;;32.60;22.90;;;;;;;7.32;66.30;100792.59;2096605;84;34136;-68
2022/03/16 02:41:57;;;;;;;31.05;23.35;;;;;;;7.34;66.37;100796.09;2052291;86;29219;-70
2022/03/16 02:44:59;;;;;;;33.65;24.60;;;;;;;7.37;66.53;100795.12;2062982;86;27726;-74
2022/03/16 02:48:01;;;;;;;33.88;24.15;;;;;;;7.39;66.76;100807.50;2063193;86;29036;-70
2022/03/16 02:51:03;;;;;;;35.80;25.48;;;;;;;7.39;66.86;100807.50;2062686;86;31048;-72
2022/03/16 02:54:06;;;;;;;34.15;25.37;;;;;;;7.40;67.04;100809.25;2062381;86;33936;-72
2022/03/16 02:57:08;;;;;;;32.85;25.75;;;;;;;7.41;67.23;100815.00;2074475;85;30714;-72
2022/03/16 03:00:13;;;;;;;34.80;25.77;;;;;;;7.44;67.36;100820.69;2071401;85;27710;-73
2022/03/16 03:03:17;;;;;;;37.80;27.70;;;;;;;7.44;67.54;100825.58;2037790;87;29489;-72
2022/03/16 03:06:20;;;;;;;32.98;25.37;;;;;;;7.44;67.56;100826.92;2037782;86;32041;-70
2022/03/16 03:09:21;;;;;;;35.95;26.45;;;;;;;7.44;67.63;100825.58;2037860;87;32994;-72
2022/03/16 03:12:23;;;;;;;30.40;23.77;;;;;;;7.44;67.77;100826.92;2039924;85;29225;-69
2022/03/16 03:15:25;;;;;;;32.88;25.30;;;;;;;7.45;67.79;100829.11;2037663;87;27711;-71
2022/03/16 03:18:27;;;;;;;31.48;24.15;;;;;;;7.45;67.96;100834.44;2065808;85;29859;-71
2022/03/16 03:21:28;;;;;;;34.63;25.57;;;;;;;7.46;68.15;100845.52;2058123;84;32275;-67
2022/03/16 03:24:30;;;;;;;34.05;25.75;;;;;;;7.47;68.25;100847.71;2067962;85;33371;-71
2022/03/16 03:27:32;;;;;;;31.05;24.70;;;;;;;7.46;68.21;100848.19;2073850;85;30460;-71
2022/03/16 03:30:34;;;;;;;34.38;25.85;;;;;;;7.45;68.42;100845.96;2063448;85;28255;-70
2022/03/16 03:33:36;;;;;;;33.45;26.85;;;;;;;7.45;68.57;100841.96;2009604;87;28756;-70
2022/03/16 03:36:39;;;;;;;32.23;25.55;;;;;;;7.46;68.61;100844.19;2033282;87;31862;-69
2022/03/16 03:39:41;;;;;;;32.95;26.77;;;;;;;7.46;68.73;100845.52;2033135;87;34203;-67
2022/03/16 03:42:44;;;;;;;34.23;28.73;;;;;;;7.46;68.84;100848.19;2035474;86;30388;-68
2022/03/16 03:45:46;;;;;;;36.98;28.85;;;;;;;7.44;68.89;100846.91;2033465;87;27709;-71
2022/03/16 03:48:48;;;;;;;38.00;30.37;;;;;;;7.43;68.93;100854.93;2033550;87;29699;-68
2022/03/16 03:51:50;;;;;;;39.63;30.08;;;;;;;7.42;69.04;100858.06;2035503;86;32152;-67
2022/03/16 03:54:52;;;;;;;37.88;28.90;;;;;;;7.42;69.13;100873.17;2033049;87;34218;-65
2022/03/16 03:57:57;;;;;;;40.63;29.95;;;;;;;7.39;69.12;100870.58;2033369;87;30706;-70
2022/03/16 04:00:58;;;;;;;40.95;30.32;;;;;;;7.36;69.32;100883.55;2035488;86;27695;-71
2022/03/16 04:04:00;;;;;;;38.42;29.52;;;;;;;7.32;69.41;100894.34;2033471;87;29499;-67
2022/03/16 04:07:03;;;;;;;41.33;29.50;;;;;;;7.30;69.50;100895.69;2033412;87;31456;-71
2022/03/16 04:10:08;;;;;;;39.92;29.42;;;;;;;7.27;69.54;100905.13;2033313;87;33178;-71
2022/03/16 04:13:10;;;;;;;38.93;29.53;;;;;;;7.24;69.60;100910.06;2071032;86;30575;-72
2022/03/16 04:16:13;;;;;;;40.25;29.92;;;;;;;7.20;69.68;100911.05;2070699;86;27683;-71
2022/03/16 04:19:15;;;;;;;43.60;32.53;;;;;;;7.15;69.80;100918.30;2070903;86;30075;-68
2022/03/16 04:22:17;;;;;;;45.30;33.42;;;;;;;7.13;69.99;100927.65;2046045;85;31432;-67
2022/03/16 04:25:19;;;;;;;54.85;34.73;;;;;;;7.10;70.18;100926.42;2047154;86;34147;-70
2022/03/16 04:28:21;;;;;;;51.58;34.78;;;;;;;7.07;70.15;100934.92;2070749;85;30419;-71
2022/03/16 04:31:23;;;;;;;50.73;36.48;;;;;;;7.02;70.21;100932.37;2045973;85;27759;-69
2022/03/16 04:34:25;;;;;;;50.67;34.70;;;;;;;6.98;70.32;100928.03;2032543;87;29975;-64
2022/03/16 04:37:28;;;;;;;54.25;37.15;;;;;;;6.95;70.43;100933.46;2033464;87;31066;-69
2022/03/16 04:40:30;;;;;;;53.35;37.30;;;;;;;6.94;70.58;100943.70;2040913;86;34224;-71
2022/03/16 04:43:33;;;;;;;49.98;36.38;;;;;;;6.92;70.63;100942.85;2034082;85;29348;-70
2022/03/16 04:46:34;;;;;;;47.53;33.83;;;;;;;6.91;70.72;100945.09;2063038;86;27744;-73
2022/03/16 04:49:37;;;;;;;53.23;37.10;;;;;;;6.89;70.77;100951.77;2069435;85;29806;-74
2022/03/16 04:52:48;;;;;;;48.00;36.25;;;;;;;6.90;70.79;100952.66;2070903;85;31832;-74
2022/03/16 04:55:51;;;;;;;52.50;36.00;;;;;;;6.90;70.98;100960.66;2071032;85;33748;-71
2022/03/16 04:58:54;;;;;;;47.33;35.70;;;;;;;6.91;71.06;100962.41;2071045;86;29380;-75
2022/03/16 05:01:58;;;;;;;49.67;36.38;;;;;;;6.92;71.06;100970.81;2068880;85;27723;-72
2022/03/16 05:05:00;;;;;;;49.80;36.00;;;;;;;6.92;71.17;100971.68;2053119;86;29829;-73
2022/03/16 05:08:03;;;;;;;52.35;38.13;;;;;;;6.92;71.20;100968.16;2070815;85;32047;-69
2022/03/16 05:11:06;;;;;;;47.10;35.85;;;;;;;6.93;71.33;100972.57;2053285;86;33025;-74
2022/03/16 05:14:09;;;;;;;49.00;36.55;;;;;;;6.93;71.29;100975.23;2089029;85;29371;-70
2022/03/16 05:17:12;;;;;;;49.55;37.50;;;;;;;6.94;71.39;100975.66;2089071;85;27580;-65
2022/03/16 05:20:16;;;;;;;49.40;35.60;;;;;;;6.94;71.39;100980.98;2088903;85;28681;-72
2022/03/16 05:23:18;;;;;;;55.48;38.00;;;;;;;6.94;71.49;100984.98;2089189;85;31857;-74
2022/03/16 05:26:20;;;;;;;53.55;36.55;;;;;;;6.95;71.59;100985.41;2088851;85;33816;-74
2022/03/16 05:29:22;;;;;;;48.55;36.42;;;;;;;6.95;71.70;100986.27;2092916;84;30678;-73
2022/03/16 05:32:24;;;;;;;48.98;35.98;;;;;;;6.96;71.75;100985.79;2098895;84;27736;-69
2022/03/16 05:35:27;;;;;;;48.90;35.85;;;;;;;6.97;71.77;100992.87;2099235;84;28722;-73
2022/03/16 05:38:30;;;;;;;51.08;36.40;;;;;;;6.99;71.80;100997.71;2098620;84;32002;-70
2022/03/16 05:41:32;;;;;;;52.13;37.23;;;;;;;7.01;71.87;101005.22;2062058;86;33686;-70
2022/03/16 05:44:35;;;;;;;54.23;37.50;;;;;;;7.03;71.96;100998.07;2074667;85;30681;-72
2022/03/16 05:47:37;;;;;;;52.50;37.65;;;;;;;7.06;72.00;101005.10;2075011;84;27824;-72
2022/03/16 05:50:44;;;;;;;55.08;38.42;;;;;;;7.09;72.11;101007.27;2072545;85;30032;-71
2022/03/16 05:53:44;;;;;;;59.15;42.80;;;;;;;7.17;72.26;101008.84;2061611;86;31951;-72
2022/03/16 05:56:47;;;;;;;68.40;49.60;;;;;;;7.22;72.21;101017.62;2052013;85;34445;-71
2022/03/16 05:59:50;;;;;;;64.03;47.55;;;;;;;7.28;72.30;101018.81;2037674;87;29413;-72
2022/03/16 06:02:51;;;;;;;58.50;42.10;;;;;;;7.33;72.33;101023.55;2037861;87;27633;-73
2022/03/16 06:05:54;;;;;;;67.72;46.02;;;;;;;7.43;72.43;101027.77;2039390;85;30108;-75
2022/03/16 06:08:56;;;;;;;64.67;44.05;;;;;;;7.51;72.40;101033.34;2037721;87;32443;-73
2022/03/16 06:11:59;;;;;;;59.95;44.42;;;;;;;7.56;72.43;101035.45;2037322;86;33870;-76
2022/03/16 06:15:01;;;;;;;58.55;42.45;;;;;;;7.65;72.64;101032.53;2037610;85;29799;-74
2022/03/16 06:18:03;;;;;;;63.42;44.20;;;;;;;7.74;72.46;101039.42;2072995;85;27838;-71
2022/03/16 06:21:05;;;;;;;56.42;41.10;;;;;;;7.87;72.47;101047.52;2074572;85;29986;-72
2022/03/16 06:24:08;;;;;;;59.58;40.95;;;;;;;7.98;72.21;101047.70;2074614;85;32249;-69
2022/03/16 06:27:11;;;;;;;64.65;41.60;;;;;;;8.10;72.20;101057.18;2074251;85;33558;-64
2022/03/16 06:30:13;;;;;;;70.90;45.43;;;;;;;8.20;72.13;101054.66;2061816;86;30242;-70
2022/03/16 06:33:17;;;;;;;66.53;42.30;;;;;;;8.30;71.95;101060.16;2062242;86;27641;-71
2022/03/16 06:36:19;;;;;;;67.40;45.10;;;;;;;8.40;71.92;101063.44;2071677;84;29404;-63
2022/03/16 06:39:22;;;;;;;69.40;45.60;;;;;;;8.48;71.77;101063.26;2103182;84;32535;-61
2022/03/16 06:42:25;;;;;;;65.22;45.12;;;;;;;8.55;71.72;101063.95;2082410;84;33549;-73
2022/03/16 06:45:40;;;;;;;68.37;44.30;;;;;;;8.60;71.53;101067.37;2078047;85;30321;-74
2022/03/16 06:48:48;;;;;;;64.58;42.88;;;;;;;8.65;71.52;101067.66;2028157;87;27661;-69
2022/03/16 06:51:54;;;;;;;67.45;43.63;;;;;;;8.72;71.35;101072.35;2027948;87;28718;-69
2022/03/16 06:54:59;;;;;;;67.78;44.80;;;;;;;8.72;71.17;101076.36;2028107;87;31023;-76
2022/03/16 06:58:02;;;;;;;67.58;45.25;;;;;;;8.72;71.13;101084.37;2043071;86;32937;-68
2022/03/16 07:01:04;;;;;;;70.78;48.50;;;;;;;8.67;70.92;101094.34;2067597;85;29979;-70
2022/03/16 07:04:12;;;;;;;70.65;47.13;;;;;;;8.58;70.75;101092.81;2067994;86;27686;-72
2022/03/16 07:07:13;;;;;;;67.22;47.00;;;;;;;8.55;70.76;101110.69;2061999;86;29283;-67
2022/03/16 07:10:16;;;;;;;74.67;48.33;;;;;;;8.51;70.76;101114.81;2098271;84;32211;-69
2022/03/16 07:13:18;;;;;;;72.75;49.03;;;;;;;8.47;70.66;101126.89;2098869;84;34072;-62
2022/03/16 07:16:21;;;;;;;84.35;52.45;;;;;;;8.43;70.63;101135.93;2098294;84;30770;-64
2022/03/16 07:19:23;;;;;;;75.52;51.68;;;;;;;8.39;70.59;101132.92;2098722;84;27649;-62
2022/03/16 07:22:26;;;;;;;74.82;51.70;;;;;;;8.33;70.76;101128.63;2098343;84;29490;-62
2022/03/16 07:25:29;;;;;;;87.45;55.88;;;;;;;8.25;70.62;101136.84;2098278;84;32239;-62
2022/03/16 07:28:32;;;;;;;84.85;57.70;;;;;;;8.20;70.67;101140.94;2098533;84;33431;-65
2022/03/16 07:31:37;;;;;;;90.97;59.65;;;;;;;8.23;70.78;101141.34;2089630;84;29991;-66
2022/03/16 07:34:40;;;;;;;85.90;57.50;;;;;;;8.31;70.67;101147.33;2089137;85;27668;-61
2022/03/16 07:37:44;;;;;;;88.87;58.90;;;;;;;8.36;70.59;101152.55;2088750;85;28676;-62
2022/03/16 07:40:48;;;;;;;89.42;58.02;;;;;;;8.45;70.63;101155.43;2089425;85;31019;-63
2022/03/16 07:43:51;;;;;;;87.22;58.80;;;;;;;8.67;70.58;101151.77;2088811;85;34215;-64
2022/03/16 07:46:57;;;;;;;85.50;59.25;;;;;;;8.86;70.45;101152.55;2089126;85;30080;-62
2022/03/16 07:50:00;;;;;;;90.07;58.85;;;;;;;9.21;70.51;101148.86;2071120;86;27965;-62
2022/03/16 07:53:03;;;;;;;89.55;58.25;;;;;;;9.57;70.50;101151.33;2028254;86;28705;-62
2022/03/16 07:56:06;;;;;;;80.92;56.05;;;;;;;9.96;70.12;101152.75;2070874;86;31303;-71
2022/03/16 07:59:08;;;;;;;77.25;55.45;;;;;;;10.20;69.12;101147.47;2070584;86;33687;-64
2022/03/16 08:02:19;;;;;;;78.78;55.35;;;;;;;10.47;68.88;101151.50;2070883;85;29359;-62
2022/03/16 08:05:23;;;;;;;80.90;57.05;;;;;;;10.71;68.39;101151.08;2052915;86;27542;-64
2022/03/16 08:08:26;;;;;;;78.17;53.58;;;;;;;10.92;68.34;101153.43;2068822;86;29488;-64
2022/03/16 08:11:28;;;;;;;72.92;52.17;;;;;;;11.18;67.93;101152.89;2052699;86;31822;-71
2022/03/16 08:14:30;;;;;;;71.20;51.18;;;;;;;11.45;67.06;101154.11;2052707;86;34280;-66
2022/03/16 08:17:33;;;;;;;75.80;52.73;;;;;;;11.66;66.55;101158.22;2073458;85;30511;-66
2022/03/16 08:20:35;;;;;;;65.22;49.42;;;;;;;11.97;66.91;101150.25;2070743;86;27627;-69
2022/03/16 08:23:38;;;;;;;73.85;50.78;;;;;;;12.26;65.60;101158.42;2088873;85;29958;-74
2022/03/16 08:26:41;;;;;;;74.95;52.17;;;;;;;12.29;65.11;101161.47;2089047;85;31684;-71
2022/03/16 08:29:44;;;;;;;69.12;51.10;;;;;;;12.41;65.19;101161.41;2090689;84;32986;-74
2022/03/16 08:32:46;;;;;;;64.60;48.58;;;;;;;12.51;64.67;101168.57;2098374;84;30523;-74
2022/03/16 08:35:48;;;;;;;68.78;50.28;;;;;;;12.52;64.43;101175.70;2098480;84;27718;-74
2022/03/16 08:38:50;;;;;;;68.07;49.65;;;;;;;12.35;63.19;101179.13;2098673;84;29064;-71
2022/03/16 08:41:52;;;;;;;67.60;49.20;;;;;;;12.12;63.08;101181.86;2054639;85;32398;-76
2022/03/16 08:44:53;;;;;;;69.95;49.48;;;;;;;11.96;63.13;101186.09;2038496;86;34180;-64
2022/03/16 08:47:55;;;;;;;67.25;48.42;;;;;;;11.88;62.85;101193.12;2058274;85;30484;-67
2022/03/16 08:50:58;;;;;;;65.12;47.27;;;;;;;11.73;62.71;101193.73;2062097;86;27774;-65
2022/03/16 08:54:00;;;;;;;66.82;49.30;;;;;;;11.69;62.68;101191.17;2062204;86;28661;-65
2022/03/16 08:57:05;;;;;;;69.05;49.10;;;;;;;11.74;63.00;101203.54;2096301;84;31062;-71
2022/03/16 09:00:14;;;;;;;;;;;;;;;11.80;63.36;101200.59;2079405;84;33090;-79
2022/03/16 09:03:19;;;;;;;67.27;46.25;;;;;;;11.86;63.09;101204.38;2077266;84;29042;-74
2022/03/16 09:06:23;;;;;;;67.90;49.85;;;;;;;11.98;62.62;101209.28;2098215;84;27670;-81
2022/03/16 09:09:26;;;;;;;71.92;52.13;;;;;;;12.02;62.46;101211.84;2058502;86;28718;-64
2022/03/16 09:12:29;;;;;;;67.15;49.65;;;;;;;12.05;62.47;101207.70;2074435;85;33159;-74
2022/03/16 09:15:32;;;;;;;68.12;47.17;;;;;;;12.08;61.34;101211.61;2072746;84;33611;-74
2022/03/16 09:18:34;;;;;;;66.42;47.27;;;;;;;12.05;61.64;101204.52;2074797;84;30176;-64
2022/03/16 09:21:37;;;;;;;65.40;47.43;;;;;;;12.08;61.29;101215.63;2062260;86;27620;-79
2022/03/16 09:24:40;;;;;;;63.55;45.38;;;;;;;12.12;61.98;101211.41;2074546;85;29928;-68
2022/03/16 09:27:42;;;;;;;64.87;47.30;;;;;;;12.29;61.82;101214.72;2038436;85;31833;-68
2022/03/16 09:30:45;;;;;;;65.40;46.80;;;;;;;12.30;61.09;101225.87;2036941;87;33169;-81
2022/03/16 09:33:48;;;;;;;61.08;45.90;;;;;;;12.26;60.15;101231.44;2036662;87;30031;-76
2022/03/16 09:36:50;;;;;;;61.25;44.88;;;;;;;12.12;60.34;101227.97;2046878;85;27632;-73
2022/03/16 09:39:53;;;;;;;61.73;44.15;;;;;;;12.00;60.27;101230.23;2074227;85;28719;-78
2022/03/16 09:42:55;;;;;;;55.98;42.67;;;;;;;12.04;60.97;101226.09;2069957;85;31898;-62
2022/03/16 09:46:04;;;;;;;62.83;45.12;;;;;;;12.15;61.12;101231.88;2065320;84;33767;-68
2022/03/16 09:49:07;;;;;;;60.10;43.05;;;;;;;12.24;60.70;101231.97;2033229;87;30559;-75
2022/03/16 09:52:09;;;;;;;60.15;42.78;;;;;;;12.29;60.46;101238.04;2033989;87;27723;-75
2022/03/16 09:55:14;;;;;;;60.83;42.78;;;;;;;12.30;59.90;101239.30;2035636;86;29094;-62
2022/03/16 09:58:17;;;;;;;61.95;43.05;;;;;;;12.35;60.10;101243.62;2033927;87;31960;-68
2022/03/16 10:01:19;;;;;;;55.83;40.78;;;;;;;12.42;60.41;101237.03;2033685;86;33754;-64
2022/03/16 10:04:33;;;;;;;55.15;40.08;;;;;;;12.48;59.65;101253.39;2033715;87;29748;-69
2022/03/16 10:07:36;;;;;;;56.48;42.17;;;;;;;12.39;58.96;101253.31;2036392;86;27702;-75
2022/03/16 10:14:07;;;;;;;57.25;42.35;;;;;;;12.44;59.45;101248.59;2033593;86;31303;-67
2022/03/16 10:20:37;;;;;;;50.40;38.05;;;;;;;12.54;58.97;101247.73;2070741;85;30570;-64
2022/03/16 10:23:41;;;;;;;52.38;37.75;;;;;;;12.48;58.23;101252.91;2071045;85;28309;-73
2022/03/16 10:26:53;;;;;;;43.90;35.03;;;;;;;12.43;57.53;101248.19;2051856;85;29561;-64
2022/03/16 10:29:56;;;;;;;45.00;33.78;;;;;;;12.42;57.53;101261.22;2071719;85;31870;-74
2022/03/16 10:32:59;;;;;;;44.23;33.45;;;;;;;12.48;57.90;101255.59;2062663;86;33160;-80
2022/03/16 10:36:11;;;;;;;39.75;30.90;;;;;;;12.54;57.92;101259.38;2054843;86;30181;-77
2022/03/16 10:39:14;;;;;;;41.28;30.75;;;;;;;12.58;56.93;101270.86;2007546;88;27700;-78
2022/03/16 10:49:09;;;;;;;40.12;29.52;;;;;;;12.69;55.91;101275.79;2022172;88;33806;-65
2022/03/16 10:52:17;;;;;;;46.33;30.92;;;;;;;12.81;55.44;101286.00;2021977;88;30192;-80
2022/03/16 10:55:22;;;;;;;39.78;29.15;;;;;;;12.85;53.73;101275.53;2024646;86;27746;-70
2022/03/16 10:58:25;;;;;;;42.30;30.80;;;;;;;13.01;53.94;101281.58;2075390;85;29821;-79
2022/03/16 11:01:28;;;;;;;43.30;34.58;;;;;;;13.10;52.30;101282.98;2075436;85;31044;-69
2022/03/16 11:04:35;;;;;;;54.58;36.93;;;;;;;13.16;53.40;101283.59;2074820;85;33004;-64
2022/03/16 11:07:38;;;;;;;51.20;35.03;;;;;;;13.25;54.15;101274.68;2062178;86;30190;-81
2022/03/16 11:10:43;;;;;;;44.18;33.50;;;;;;;13.38;54.23;101273.20;2098646;84;28191;-63
2022/03/16 11:13:49;;;;;;;43.13;31.82;;;;;;;13.45;53.40;101273.83;2098748;84;28632;-62
2022/03/16 11:16:50;;;;;;;44.17;31.77;;;;;;;13.49;53.36;101280.80;2062637;85;32232;-62
2022/03/16 11:19:52;;;;;;;34.60;26.00;;;;;;;13.56;53.25;101279.58;2074395;85;33481;-62
2022/03/16 11:26:26;;;;;;;35.50;26.20;;;;;;;13.32;50.38;101280.20;2080184;85;27695;-62
2022/03/16 11:29:59;;;;;;;35.75;26.48;;;;;;;13.15;49.41;101289.05;2066684;85;29648;-63
2022/03/16 11:33:10;;;;;;;36.30;27.40;;;;;;;13.06;50.92;101283.61;2065599;85;31558;-77
2022/03/16 11:36:32;;;;;;;35.25;27.27;;;;;;;13.07;50.87;101286.22;2054347;85;32988;-69
2022/03/16 11:39:45;;;;;;;34.50;26.57;;;;;;;13.12;50.79;101289.18;2027603;87;29702;-75
2022/03/16 11:43:15;;;;;;;37.40;27.52;;;;;;;13.31;50.74;101286.53;2027183;87;27678;-61
2022/03/16 11:46:29;;;;;;;35.25;28.23;;;;;;;13.58;50.99;101283.08;2037684;86;29925;-61
2022/03/16 11:49:32;;;;;;;30.17;23.87;;;;;;;13.82;50.17;101285.55;2064835;85;30476;-60
2022/03/16 11:53:05;;;;;;;33.30;24.02;;;;;;;13.86;49.45;101292.54;2064585;85;33124;-61
2022/03/16 11:56:32;;;;;;;31.57;24.60;;;;;;;13.86;49.78;101293.03;2056031;85;30164;-62
2022/03/16 11:59:40;;;;;;;32.65;25.27;;;;;;;14.01;49.71;101281.97;2027529;87;27696;-62
2022/03/16 12:02:41;;;;;;;28.30;22.90;;;;;;;14.17;48.31;101282.11;2057380;86;28720;-64
2022/03/16 12:05:58;;;;;;;28.77;23.02;;;;;;;14.15;48.06;101291.61;2064378;86;32372;-63
2022/03/16 12:09:03;;;;;;;26.90;20.65;;;;;;;14.09;47.44;101296.82;2064399;86;33821;-65
2022/03/16 12:15:42;;;;;;;27.62;21.90;;;;;;;13.92;47.89;101288.67;2064622;86;27617;-66
2022/03/16 12:18:47;;;;;;;31.15;24.27;;;;;;;13.94;47.70;101289.02;2064923;86;28696;-72
2022/03/16 12:21:49;;;;;;;28.92;22.80;;;;;;;14.13;48.03;101284.95;2064399;85;31891;-65
2022/03/16 12:25:10;;;;;;;27.80;22.95;;;;;;;14.41;47.62;101277.33;2047106;86;34416;-62
2022/03/16 12:31:42;;;;;;;36.10;27.20;;;;;;;14.45;44.43;101295.11;2064560;85;27629;-64
2022/03/16 12:34:45;;;;;;;38.63;27.40;;;;;;;14.32;45.53;101293.48;2064617;85;28502;-64
2022/03/16 12:37:51;;;;;;;40.08;30.37;;;;;;;14.27;45.11;101296.42;2064244;85;32277;-61
2022/03/16 12:44:17;;;;;;;40.50;28.65;;;;;;;13.88;44.16;101308.16;2064339;85;30511;-77
2022/03/16 12:47:29;;;;;;;35.55;29.35;;;;;;;13.72;45.04;101305.33;2040546;85;28188;-71
2022/03/16 12:50:31;;;;;;;37.80;31.12;;;;;;;13.64;45.10;101312.42;2056435;86;28861;-67
2022/03/16 12:53:44;;;;;;;40.50;31.93;;;;;;;13.62;45.36;101320.15;2063311;85;31907;-62
2022/03/16 12:56:53;;;;;;;39.75;30.80;;;;;;;13.66;45.13;101319.07;2049450;85;34340;-77
2022/03/16 12:59:57;;;;;;;38.60;31.23;;;;;;;13.68;45.80;101322.08;2058525;86;29346;-78
2022/03/16 13:03:16;;;;;;;38.13;28.83;;;;;;;13.72;45.34;101329.57;2064563;85;28262;-77
2022/03/16 13:06:21;;;;;;;38.42;30.90;;;;;;;13.74;45.57;101328.14;2053211;85;28708;-62
2022/03/16 13:09:36;;;;;;;43.58;34.05;;;;;;;13.72;45.10;101328.68;2001318;87;31059;-64
2022/03/16 13:12:42;;;;;;;46.40;34.88;;;;;;;13.74;44.87;101334.87;2027483;87;34026;-78
2022/03/16 13:15:44;;;;;;;51.13;38.73;;;;;;;13.72;45.29;101335.41;2030025;86;29400;-71
2022/03/16 13:18:49;;;;;;;71.92;45.70;;;;;;;13.69;44.96;101340.48;2096483;84;27655;-64
2022/03/16 13:22:06;;;;;;;63.23;45.43;;;;;;;13.68;45.63;101336.03;2082025;84;30594;-69
2022/03/16 13:25:10;;;;;;;74.12;48.95;;;;;;;13.70;45.59;101334.61;2063585;86;31945;-65
2022/03/16 13:28:11;;;;;;;58.78;44.42;;;;;;;13.66;45.79;101335.23;2064239;85;32953;-70
2022/03/16 13:31:14;;;;;;;64.60;44.77;;;;;;;13.60;45.45;101331.45;2065774;85;30072;-63
2022/03/16 13:34:17;;;;;;;64.67;46.00;;;;;;;13.62;45.80;101330.92;2055898;85;27715;-63
2022/03/16 13:37:35;;;;;;;56.65;41.75;;;;;;;13.62;45.28;101339.00;2030538;85;29537;-80
2022/03/16 13:40:38;;;;;;;52.30;40.03;;;;;;;13.43;44.73;101334.94;2079182;85;31402;-70
2022/03/16 13:43:40;;;;;;;63.30;41.95;;;;;;;13.22;43.58;101347.91;2080756;85;33003;-61
2022/03/16 13:46:44;;;;;;;59.15;40.67;;;;;;;13.00;44.93;101343.91;2079532;85;29702;-63
2022/03/16 13:49:49;;;;;;;64.37;41.13;;;;;;;12.85;44.54;101345.91;2080503;85;27687;-63
2022/03/16 13:52:53;;;;;;;61.00;40.25;;;;;;;12.72;45.06;101352.30;2080722;85;28717;-62
2022/03/16 13:55:57;;;;;;;54.70;40.20;;;;;;;12.64;45.58;101355.30;2076718;85;31862;-75
2022/03/16 13:58:59;;;;;;;52.40;40.88;;;;;;;12.68;45.92;101354.20;2011140;86;32984;-74
2022/03/16 14:02:13;;;;;;;53.55;40.38;;;;;;;12.79;46.11;101353.77;2062120;86;29489;-71
2022/03/16 14:05:24;;;;;;;57.17;42.35;;;;;;;12.94;46.17;101351.36;2039367;87;27660;-73
2022/03/16 14:08:25;;;;;;;52.93;41.40;;;;;;;13.14;46.14;101350.53;2070789;85;28638;-79
2022/03/16 14:11:35;;;;;;;54.67;41.83;;;;;;;13.26;46.15;101354.47;2062484;86;31020;-75
2022/03/16 14:14:37;;;;;;;55.33;38.63;;;;;;;13.40;45.94;101350.76;2074901;85;33762;-77
2022/03/16 14:17:58;;;;;;;52.23;38.88;;;;;;;13.50;45.59;101347.16;2068539;85;30131;-63
2022/03/16 14:21:00;;;;;;;54.85;41.20;;;;;;;13.57;45.55;101358.55;2075057;85;27725;-70
2022/03/16 14:24:03;;;;;;;53.95;41.77;;;;;;;13.59;45.27;101356.18;2074910;84;29097;-77
2022/03/16 14:27:22;;;;;;;63.13;43.40;;;;;;;13.51;44.90;101358.33;2043083;85;31437;-76
2022/03/16 14:30:26;;;;;;;56.65;39.92;;;;;;;13.41;45.37;101360.55;2094445;84;33426;-74
2022/03/16 14:33:30;;;;;;;51.02;36.13;;;;;;;13.27;45.09;101359.80;2104528;84;29404;-66
2022/03/16 14:36:33;;;;;;;53.30;39.93;;;;;;;13.14;44.98;101372.05;2092585;84;27707;-80
2022/03/16 14:39:38;;;;;;;52.40;39.38;;;;;;;13.03;45.37;101372.50;2073718;85;28739;-78
2022/03/16 14:42:41;;;;;;;51.95;40.58;;;;;;;12.91;45.51;101369.86;2074167;85;32335;-73